createdAt,value
2018-04-15T00:01:12.040Z,12.47
2018-04-15T00:03:45.671Z,12.47
2018-04-15T00:06:19.480Z,12.43
2018-04-15T00:08:53.142Z,12.41
2018-04-15T00:11:26.832Z,12.35
2018-04-15T00:14:00.369Z,12.35
2018-04-15T00:16:33.952Z,12.34
2018-04-15T00:19:07.532Z,12.32
2018-04-15T00:21:41.103Z,12.32
2018-04-15T00:24:14.767Z,12.34
2018-04-15T00:26:48.420Z,12.30
2018-04-15T00:29:22.419Z,12.25
2018-04-15T00:31:56.082Z,12.24
2018-04-15T00:34:29.753Z,12.24
2018-04-15T00:37:03.315Z,12.27
2018-04-15T00:39:36.964Z,12.19
2018-04-15T00:42:10.496Z,12.16
2018-04-15T00:44:44.318Z,12.21
2018-04-15T00:47:17.980Z,12.16
2018-04-15T00:49:51.512Z,12.14
2018-04-15T00:52:25.096Z,12.13
2018-04-15T00:54:58.645Z,12.13
2018-04-15T00:57:32.208Z,12.07
2018-04-15T01:00:05.745Z,12.06
2018-04-15T01:02:39.344Z,12.02
2018-04-15T01:05:12.905Z,12.03
2018-04-15T01:07:46.616Z,12.07
2018-04-15T01:10:20.483Z,12.07
2018-04-15T01:12:54.149Z,12.07
2018-04-15T01:15:27.983Z,12.10
2018-04-15T01:18:01.661Z,12.07
2018-04-15T01:20:35.407Z,12.06
2018-04-15T01:23:09.016Z,12.04
2018-04-15T01:25:42.556Z,12.05
2018-04-15T01:28:16.158Z,12.09
2018-04-15T01:30:49.792Z,12.05
2018-04-15T01:33:23.347Z,12.05
2018-04-15T01:35:56.916Z,12.05
2018-04-15T01:38:30.530Z,12.10
2018-04-15T01:41:04.125Z,12.07
2018-04-15T01:43:42.707Z,12.03
2018-04-15T01:46:16.236Z,11.91
2018-04-15T01:48:49.975Z,11.88
2018-04-15T01:51:23.556Z,11.99
2018-04-15T01:53:57.153Z,11.98
2018-04-15T01:56:30.716Z,11.96
2018-04-15T01:59:04.281Z,11.99
2018-04-15T02:01:37.944Z,11.96
2018-04-15T02:04:11.608Z,11.93
2018-04-15T02:06:45.159Z,11.90
2018-04-15T02:09:18.833Z,11.93
2018-04-15T02:11:52.399Z,11.92
2018-04-15T02:14:26.055Z,11.91
2018-04-15T02:16:59.718Z,11.88
2018-04-15T02:19:33.316Z,11.80
2018-04-15T02:22:07.004Z,11.83
2018-04-15T02:24:40.559Z,11.93
2018-04-15T02:27:14.139Z,11.85
2018-04-15T02:29:47.949Z,11.76
2018-04-15T02:32:21.563Z,11.76
2018-04-15T02:34:55.136Z,11.78
2018-04-15T02:37:28.723Z,11.76
2018-04-15T02:40:02.281Z,11.77
2018-04-15T02:42:36.036Z,11.83
2018-04-15T02:45:09.599Z,11.72
2018-04-15T02:47:43.344Z,11.77
2018-04-15T02:50:16.899Z,11.78
2018-04-15T02:52:50.508Z,11.80
2018-04-15T02:55:24.085Z,11.73
2018-04-15T02:57:57.675Z,11.70
2018-04-15T03:00:31.308Z,11.71
2018-04-15T03:03:04.903Z,11.75
2018-04-15T03:05:38.661Z,11.79
2018-04-15T03:08:12.375Z,11.91
2018-04-15T03:10:46.019Z,11.87
2018-04-15T03:13:19.588Z,11.93
2018-04-15T03:15:53.135Z,11.95
2018-04-15T03:18:26.728Z,11.94
2018-04-15T03:21:00.303Z,11.93
2018-04-15T03:23:34.074Z,11.89
2018-04-15T03:26:07.744Z,11.81
2018-04-15T03:28:41.459Z,11.70
2018-04-15T03:31:15.288Z,11.66
2018-04-15T03:33:49.011Z,11.63
2018-04-15T03:36:22.551Z,11.66
2018-04-15T03:38:56.276Z,11.68
2018-04-15T03:41:29.843Z,11.76
2018-04-15T03:44:03.360Z,11.80
2018-04-15T03:46:36.943Z,11.82
2018-04-15T03:49:10.476Z,11.75
2018-04-15T03:51:44.174Z,11.66
2018-04-15T03:54:17.740Z,11.59
2018-04-15T03:56:51.296Z,11.62
2018-04-15T03:59:24.883Z,11.65
2018-04-15T04:01:58.452Z,11.70
2018-04-15T04:04:31.991Z,11.61
2018-04-15T04:07:05.654Z,11.60
2018-04-15T04:09:39.428Z,11.63
2018-04-15T04:12:12.995Z,11.56
2018-04-15T04:14:46.624Z,11.59
2018-04-15T04:17:20.372Z,11.68
2018-04-15T04:20:05.991Z,11.64
2018-04-15T04:22:52.442Z,11.59
2018-04-15T04:25:36.857Z,11.57
2018-04-15T04:28:10.500Z,11.50
2018-04-15T04:30:44.035Z,11.50
2018-04-15T04:33:17.592Z,11.50
2018-04-15T04:35:51.167Z,11.48
2018-04-15T04:38:24.732Z,11.51
2018-04-15T04:40:58.489Z,11.42
2018-04-15T04:43:32.036Z,11.42
2018-04-15T04:46:05.619Z,11.43
2018-04-15T04:48:39.199Z,11.45
2018-04-15T04:51:12.900Z,11.40
2018-04-15T04:53:46.583Z,11.38
2018-04-15T04:56:20.273Z,11.44
2018-04-15T04:58:53.962Z,11.45
2018-04-15T05:01:27.732Z,11.43
2018-04-15T05:04:01.494Z,11.48
2018-04-15T05:06:35.299Z,11.44
2018-04-15T05:09:08.892Z,11.43
2018-04-15T05:11:42.648Z,11.43
2018-04-15T05:14:16.359Z,11.30
2018-04-15T05:16:49.973Z,11.28
2018-04-15T05:19:23.539Z,11.27
2018-04-15T05:21:57.105Z,11.37
2018-04-15T05:24:30.720Z,11.35
2018-04-15T05:27:04.304Z,11.34
2018-04-15T05:29:37.907Z,11.33
2018-04-15T05:32:11.701Z,11.37
2018-04-15T05:34:45.196Z,11.32
2018-04-15T05:37:18.736Z,11.35
2018-04-15T05:39:52.436Z,11.39
2018-04-15T05:42:26.220Z,11.55
2018-04-15T05:44:59.816Z,11.38
2018-04-15T05:47:33.426Z,11.36
2018-04-15T05:50:06.966Z,11.55
2018-04-15T05:52:40.598Z,11.52
2018-04-15T05:55:14.286Z,11.58
2018-04-15T05:57:48.090Z,12.10
2018-04-15T06:00:21.779Z,12.31
2018-04-15T06:02:55.580Z,12.26
2018-04-15T06:05:29.170Z,12.44
2018-04-15T06:08:02.733Z,12.11
2018-04-15T06:10:36.203Z,11.78
2018-04-15T06:13:09.670Z,11.67
2018-04-15T06:15:43.244Z,11.60
2018-04-15T06:18:16.757Z,11.47
2018-04-15T06:20:50.689Z,11.47
2018-04-15T06:23:24.343Z,11.47
2018-04-15T06:25:57.859Z,11.50
2018-04-15T06:28:31.636Z,11.49
2018-04-15T06:31:05.395Z,11.52
2018-04-15T06:33:39.126Z,11.52
2018-04-15T06:36:12.796Z,11.56
2018-04-15T06:38:46.336Z,11.59
2018-04-15T06:41:19.964Z,11.60
2018-04-15T06:43:53.531Z,11.71
2018-04-15T06:46:27.091Z,11.69
2018-04-15T06:49:00.891Z,11.84
2018-04-15T06:51:34.519Z,11.97
2018-04-15T06:54:08.044Z,12.19
2018-04-15T06:56:41.545Z,12.27
2018-04-15T06:59:15.290Z,12.37
2018-04-15T07:01:49.044Z,12.46
2018-04-15T07:04:22.792Z,12.75
2018-04-15T07:06:56.564Z,12.97
2018-04-15T07:09:30.207Z,13.20
2018-04-15T07:12:03.820Z,13.27
2018-04-15T07:14:37.520Z,13.42
2018-04-15T07:17:11.272Z,13.42
2018-04-15T07:19:44.787Z,13.36
2018-04-15T07:22:18.475Z,13.22
2018-04-15T07:24:52.251Z,13.09
2018-04-15T07:27:25.999Z,12.95
2018-04-15T07:29:59.652Z,12.86
2018-04-15T07:32:33.277Z,12.74
2018-04-15T07:35:06.903Z,12.78
2018-04-15T07:37:40.576Z,12.83
2018-04-15T07:40:14.108Z,12.91
2018-04-15T07:42:47.911Z,12.97
2018-04-15T07:45:21.696Z,13.05
2018-04-15T07:47:55.304Z,13.22
2018-04-15T07:50:28.874Z,13.38
2018-04-15T07:53:02.624Z,13.54
2018-04-15T07:55:36.152Z,13.73
2018-04-15T07:58:10.223Z,14.42
2018-04-15T08:00:43.887Z,15.25
2018-04-15T08:03:17.720Z,16.46
2018-04-15T08:05:51.246Z,17.08
2018-04-15T08:08:24.884Z,17.59
2018-04-15T08:10:58.412Z,16.51
2018-04-15T08:13:32.193Z,16.12
2018-04-15T08:16:05.727Z,17.86
2018-04-15T08:18:39.304Z,19.15
2018-04-15T08:21:12.865Z,19.08
2018-04-15T08:23:46.579Z,17.69
2018-04-15T08:26:20.136Z,16.51
2018-04-15T08:28:53.723Z,16.22
2018-04-15T08:31:27.345Z,15.40
2018-04-15T08:34:01.048Z,14.56
2018-04-15T08:36:34.610Z,14.90
2018-04-15T08:39:08.288Z,17.14
2018-04-15T08:41:41.894Z,19.10
2018-04-15T08:44:15.455Z,20.88
2018-04-15T08:46:48.975Z,21.91
2018-04-15T08:49:22.776Z,22.65
2018-04-15T08:51:56.428Z,20.89
2018-04-15T08:54:30.028Z,20.29
2018-04-15T08:57:03.640Z,21.12
2018-04-15T08:59:37.200Z,22.76
2018-04-15T09:02:10.925Z,22.15
2018-04-15T09:04:44.630Z,22.29
2018-04-15T09:07:18.169Z,23.21
2018-04-15T09:09:51.891Z,21.06
2018-04-15T09:12:25.427Z,19.92
2018-04-15T09:14:59.060Z,20.30
2018-04-15T09:17:32.619Z,21.60
2018-04-15T09:20:06.444Z,22.46
2018-04-15T09:22:40.008Z,22.10
2018-04-15T09:25:13.661Z,20.37
2018-04-15T09:27:47.224Z,21.34
2018-04-15T09:30:20.855Z,24.01
2018-04-15T09:32:54.627Z,24.37
2018-04-15T09:35:28.340Z,26.23
2018-04-15T09:38:02.140Z,24.57
2018-04-15T09:40:35.834Z,24.66
2018-04-15T09:43:09.615Z,24.64
2018-04-15T09:45:43.199Z,23.42
2018-04-15T09:48:16.783Z,22.96
2018-04-15T09:50:50.473Z,22.57
2018-04-15T09:53:24.264Z,20.51
2018-04-15T09:55:58.047Z,18.29
2018-04-15T09:58:31.552Z,18.20
2018-04-15T10:01:05.037Z,18.76
2018-04-15T10:03:38.575Z,18.50
2018-04-15T10:06:12.351Z,17.62
2018-04-15T10:08:45.855Z,17.86
2018-04-15T10:11:19.670Z,17.41
2018-04-15T10:13:53.228Z,18.68
2018-04-15T10:16:26.964Z,18.17
2018-04-15T10:19:00.511Z,17.79
2018-04-15T10:21:34.196Z,17.13
2018-04-15T10:24:07.815Z,17.94
2018-04-15T10:26:41.504Z,18.09
2018-04-15T10:29:15.176Z,19.87
2018-04-15T10:31:48.852Z,20.51
2018-04-15T10:34:22.416Z,23.41
2018-04-15T10:36:56.212Z,24.51
2018-04-15T10:39:29.825Z,25.90
2018-04-15T10:42:03.452Z,26.77
2018-04-15T10:44:37.064Z,24.59
2018-04-15T10:53:09.847Z,25.29
2018-04-15T10:55:43.448Z,25.61
2018-04-15T10:58:18.032Z,23.85
2018-04-15T11:00:51.703Z,24.66
2018-04-15T11:03:25.532Z,26.61
2018-04-15T11:05:59.074Z,25.22
2018-04-15T11:08:32.801Z,23.67
2018-04-15T11:11:06.311Z,22.77
2018-04-15T11:13:40.102Z,22.67
2018-04-15T11:16:13.924Z,21.54
2018-04-15T11:18:47.504Z,21.03
2018-04-15T11:21:21.288Z,21.05
2018-04-15T11:23:54.881Z,21.94
2018-04-15T11:26:28.558Z,20.50
2018-04-15T11:29:02.165Z,20.06
2018-04-15T11:31:35.892Z,20.58
2018-04-15T11:34:09.458Z,20.93
2018-04-15T11:36:43.014Z,20.53
2018-04-15T11:39:16.612Z,19.14
2018-04-15T11:41:50.395Z,19.00
2018-04-15T11:44:23.953Z,19.36
2018-04-15T11:46:57.558Z,19.57
2018-04-15T11:49:31.349Z,20.04
2018-04-15T11:52:04.900Z,19.61
2018-04-15T11:54:38.508Z,19.77
2018-04-15T11:57:12.059Z,19.65
2018-04-15T11:59:45.735Z,19.48
2018-04-15T12:02:19.422Z,19.34
2018-04-15T12:04:53.136Z,18.40
2018-04-15T12:07:26.760Z,18.18
2018-04-15T12:10:00.295Z,17.87
2018-04-15T12:12:33.956Z,18.52
2018-04-15T12:15:07.508Z,19.16
2018-04-15T12:17:44.060Z,19.40
2018-04-15T12:20:17.914Z,19.74
2018-04-15T12:22:51.595Z,19.05
2018-04-15T12:25:25.284Z,19.30
2018-04-15T12:27:58.948Z,19.57
2018-04-15T12:30:32.620Z,19.74
2018-04-15T12:33:06.165Z,20.02
2018-04-15T12:35:39.970Z,20.48
2018-04-15T12:38:13.647Z,20.27
2018-04-15T12:40:47.259Z,20.56
2018-04-15T12:43:20.822Z,19.89
2018-04-15T12:45:54.583Z,19.85
2018-04-15T12:48:28.255Z,19.46
2018-04-15T12:51:01.979Z,19.03
2018-04-15T12:53:35.807Z,19.08
2018-04-15T12:56:09.347Z,19.02
2018-04-15T12:58:43.003Z,19.39
2018-04-15T13:01:16.748Z,19.68
2018-04-15T13:03:50.519Z,19.90
2018-04-15T13:06:24.616Z,19.15
2018-04-15T13:08:58.159Z,18.92
2018-04-15T13:11:31.920Z,19.34
2018-04-15T13:14:05.415Z,19.29
2018-04-15T13:16:39.020Z,19.30
2018-04-15T13:19:12.925Z,19.15
2018-04-15T13:21:46.581Z,19.34
2018-04-15T13:24:20.197Z,19.34
2018-04-15T13:26:53.812Z,19.33
2018-04-15T13:29:27.472Z,19.52
2018-04-15T13:32:01.230Z,19.81
2018-04-15T13:34:34.819Z,20.33
2018-04-15T13:37:08.399Z,20.21
2018-04-15T13:39:42.088Z,20.16
2018-04-15T13:42:15.832Z,20.25
2018-04-15T13:44:49.652Z,20.43
2018-04-15T13:47:23.244Z,20.34
2018-04-15T13:49:57.039Z,20.48
2018-04-15T13:52:30.563Z,20.27
2018-04-15T13:55:04.312Z,20.31
2018-04-15T13:57:37.916Z,20.32
2018-04-15T14:00:11.550Z,19.99
2018-04-15T14:02:45.091Z,19.94
2018-04-15T14:05:18.826Z,19.95
2018-04-15T14:07:52.703Z,19.59
2018-04-15T14:10:26.492Z,19.52
2018-04-15T14:13:00.189Z,19.66
2018-04-15T14:15:33.761Z,19.71
2018-04-15T14:18:07.480Z,19.74
2018-04-15T14:20:41.168Z,19.30
2018-04-15T14:23:15.053Z,19.10
2018-04-15T14:25:48.755Z,19.30
2018-04-15T14:28:22.283Z,19.05
2018-04-15T14:30:56.085Z,19.08
2018-04-15T14:33:29.716Z,19.33
2018-04-15T14:36:03.223Z,19.74
2018-04-15T14:38:37.032Z,19.62
2018-04-15T14:41:10.652Z,19.48
2018-04-15T14:43:44.209Z,20.75
2018-04-15T14:46:17.794Z,22.37
2018-04-15T14:48:51.385Z,22.61
2018-04-15T14:51:25.071Z,22.85
2018-04-15T14:53:58.904Z,23.59
2018-04-15T14:56:32.526Z,23.99
2018-04-15T14:59:06.115Z,22.69
2018-04-15T15:01:39.619Z,20.96
2018-04-15T15:04:13.238Z,20.32
2018-04-15T15:06:46.968Z,19.75
2018-04-15T15:09:20.512Z,19.63
2018-04-15T15:11:54.131Z,19.56
2018-04-15T15:14:27.817Z,19.71
2018-04-15T15:17:01.506Z,19.88
2018-04-15T15:19:35.202Z,19.56
2018-04-15T15:22:09.144Z,19.20
2018-04-15T15:24:59.056Z,18.88
2018-04-15T15:27:33.116Z,18.80
2018-04-15T15:30:06.664Z,18.89
2018-04-15T15:32:40.308Z,18.76
2018-04-15T15:35:14.019Z,18.83
2018-04-15T15:37:47.608Z,18.75
2018-04-15T15:40:21.431Z,18.95
2018-04-15T15:42:55.011Z,19.00
2018-04-15T15:45:28.599Z,18.85
2018-04-15T15:48:02.212Z,18.57
2018-04-15T15:50:35.728Z,18.68
2018-04-15T15:53:09.382Z,18.74
2018-04-15T15:55:43.064Z,18.54
2018-04-15T15:58:16.720Z,18.39
2018-04-15T16:00:50.499Z,18.34
2018-04-15T16:03:24.212Z,18.23
2018-04-15T16:05:57.784Z,18.31
2018-04-15T16:08:31.413Z,18.47
2018-04-15T16:11:06.131Z,18.68
2018-04-15T16:13:39.705Z,18.66
2018-04-15T16:16:13.243Z,18.68
2018-04-15T16:18:46.884Z,18.52
2018-04-15T16:21:20.698Z,18.67
2018-04-15T16:23:54.455Z,18.53
2018-04-15T16:26:27.988Z,18.67
2018-04-15T16:29:01.519Z,18.44
2018-04-15T16:31:35.332Z,18.52
2018-04-15T16:34:08.902Z,18.35
2018-04-15T16:36:42.471Z,18.26
2018-04-15T16:39:16.042Z,18.21
2018-04-15T16:41:49.760Z,18.26
2018-04-15T16:44:23.269Z,18.19
2018-04-15T16:46:56.756Z,18.34
2018-04-15T16:49:30.268Z,18.31
2018-04-15T16:52:03.995Z,18.40
2018-04-15T16:54:37.511Z,18.25
2018-04-15T16:57:11.088Z,18.21
2018-04-15T16:59:44.655Z,18.03
2018-04-15T17:02:18.411Z,17.92
2018-04-15T17:04:52.015Z,17.79
2018-04-15T17:07:25.840Z,17.75
2018-04-15T17:09:59.348Z,17.72
2018-04-15T17:12:32.973Z,17.70
2018-04-15T17:15:06.666Z,17.66
2018-04-15T17:17:40.175Z,17.57
2018-04-15T17:20:13.905Z,17.44
2018-04-15T17:22:47.620Z,17.36
2018-04-15T17:25:21.223Z,17.34
2018-04-15T17:27:54.977Z,17.36
2018-04-15T17:30:28.667Z,17.26
2018-04-15T17:33:02.205Z,17.28
2018-04-15T17:35:35.700Z,17.09
2018-04-15T17:38:09.500Z,17.07
2018-04-15T17:40:43.227Z,17.11
2018-04-15T17:43:17.133Z,17.02
2018-04-15T17:45:50.797Z,16.92
2018-04-15T17:48:24.572Z,16.77
2018-04-15T17:50:58.165Z,16.69
2018-04-15T17:53:31.792Z,16.63
2018-04-15T17:56:05.276Z,16.56
2018-04-15T17:58:38.904Z,16.44
2018-04-15T18:01:12.589Z,16.33
2018-04-15T18:03:46.156Z,16.25
2018-04-15T18:06:19.712Z,16.08
2018-04-15T18:08:53.489Z,15.95
2018-04-15T18:11:27.090Z,15.87
2018-04-15T18:14:00.819Z,15.73
2018-04-15T18:16:34.352Z,15.55
2018-04-15T18:19:07.892Z,15.48
2018-04-15T18:21:41.883Z,15.49
2018-04-15T18:24:15.489Z,15.52
2018-04-15T18:26:49.171Z,15.43
2018-04-15T18:29:22.851Z,15.36
2018-04-15T18:31:56.544Z,15.29
2018-04-15T18:34:30.309Z,15.24
2018-04-15T18:37:03.865Z,15.14
2018-04-15T18:39:37.443Z,15.08
2018-04-15T18:42:11.248Z,14.98
2018-04-15T18:44:44.823Z,14.95
2018-04-15T18:47:18.344Z,14.95
2018-04-15T18:49:52.165Z,14.93
2018-04-15T18:52:25.810Z,14.88
2018-04-15T18:54:59.324Z,14.88
2018-04-15T18:57:32.891Z,14.87
2018-04-15T19:00:06.580Z,14.83
2018-04-15T19:02:40.355Z,14.81
2018-04-15T19:05:13.968Z,14.81
2018-04-15T19:07:47.636Z,14.78
2018-04-15T19:10:21.263Z,14.77
2018-04-15T19:12:54.768Z,14.74
2018-04-15T19:15:28.617Z,14.67
2018-04-15T19:18:02.472Z,14.60
2018-04-15T19:20:36.197Z,14.58
2018-04-15T19:23:09.675Z,14.51
2018-04-15T19:25:43.715Z,14.44
2018-04-15T19:28:17.439Z,14.37
2018-04-15T19:30:51.208Z,14.36
2018-04-15T19:33:24.763Z,14.31
2018-04-15T19:35:58.360Z,14.28
2018-04-15T19:38:31.872Z,14.24
2018-04-15T19:41:05.599Z,14.20
2018-04-15T19:43:39.260Z,14.25
2018-04-15T19:46:12.784Z,14.24
2018-04-15T19:48:46.389Z,14.32
2018-04-15T19:51:20.217Z,14.39
2018-04-15T19:53:53.752Z,14.42
2018-04-15T19:56:27.232Z,14.47
2018-04-15T19:59:00.844Z,14.36
2018-04-15T20:01:34.620Z,14.27
2018-04-15T20:04:08.181Z,14.25
2018-04-15T20:06:41.989Z,14.14
2018-04-15T20:09:15.620Z,14.04
2018-04-15T20:11:49.447Z,13.93
2018-04-15T20:14:23.144Z,13.81
2018-04-15T20:16:57.221Z,13.70
2018-04-15T20:19:30.836Z,13.60
2018-04-15T20:22:04.421Z,13.54
2018-04-15T20:24:38.404Z,13.53
2018-04-15T20:27:12.073Z,13.50
2018-04-15T20:29:45.702Z,13.47
2018-04-15T20:32:19.597Z,13.47
2018-04-15T20:34:53.461Z,13.45
2018-04-15T20:37:27.141Z,13.49
2018-04-15T20:40:00.880Z,13.53
2018-04-15T20:42:34.473Z,13.58
2018-04-15T20:45:08.170Z,13.56
2018-04-15T20:47:42.017Z,13.54
2018-04-15T20:50:15.644Z,13.54
2018-04-15T20:52:49.244Z,13.53
2018-04-15T20:55:23.021Z,13.50
2018-04-15T20:57:56.699Z,13.58
2018-04-15T21:00:30.405Z,13.76
2018-04-15T21:03:04.125Z,13.97
2018-04-15T21:05:37.837Z,14.22
2018-04-15T21:08:11.393Z,14.35
2018-04-15T21:10:45.128Z,14.37
2018-04-15T21:13:18.703Z,14.37
2018-04-15T21:15:52.565Z,14.30
2018-04-15T21:18:26.180Z,14.28
2018-04-15T21:20:59.921Z,14.24
2018-04-15T21:23:33.673Z,14.17
2018-04-15T21:26:07.328Z,14.09
2018-04-15T21:28:41.081Z,14.16
2018-04-15T21:31:14.784Z,14.16
2018-04-15T21:33:48.461Z,14.16
2018-04-15T21:36:22.160Z,14.13
2018-04-15T21:38:55.948Z,14.19
2018-04-15T21:41:29.604Z,14.17
2018-04-15T21:44:03.325Z,14.16
2018-04-15T21:46:37.049Z,14.06
2018-04-15T21:49:10.733Z,13.94
2018-04-15T21:51:44.269Z,13.85
2018-04-15T21:54:18.020Z,13.69
2018-04-15T21:56:51.726Z,13.54
2018-04-15T21:59:25.355Z,13.38
2018-04-15T22:01:59.110Z,13.26
2018-04-15T22:04:32.836Z,13.14
2018-04-15T22:07:06.509Z,13.23
2018-04-15T22:09:40.312Z,13.33
2018-04-15T22:12:14.852Z,13.49
2018-04-15T22:14:48.429Z,13.60
2018-04-15T22:17:22.075Z,13.63
2018-04-15T22:19:55.933Z,13.58
2018-04-15T22:22:29.705Z,13.58
2018-04-15T22:25:03.444Z,13.58
2018-04-15T22:27:37.187Z,13.54
2018-04-15T22:30:10.785Z,13.49
2018-04-15T22:32:44.393Z,13.34
2018-04-15T22:35:18.360Z,13.26
2018-04-15T22:37:52.004Z,13.17
2018-04-15T22:40:25.654Z,13.12
2018-04-15T22:42:59.227Z,13.05
2018-04-15T22:45:33.008Z,13.07
2018-04-15T22:48:06.616Z,13.35
2018-04-15T22:50:40.284Z,13.51
2018-04-15T22:53:13.840Z,13.59
2018-04-15T22:55:47.399Z,13.64
2018-04-15T22:58:40.802Z,13.65
2018-04-15T23:01:15.294Z,13.64
2018-04-15T23:03:48.997Z,13.64
2018-04-15T23:06:22.737Z,13.57
2018-04-15T23:08:56.497Z,13.50
2018-04-15T23:11:30.188Z,13.45
2018-04-15T23:14:03.915Z,13.40
2018-04-15T23:16:37.645Z,13.37
2018-04-15T23:19:11.233Z,13.41
2018-04-15T23:21:44.975Z,13.46
2018-04-15T23:42:07.068Z,13.40
2018-04-15T23:44:40.967Z,13.42
2018-04-15T23:47:14.596Z,13.37
2018-04-15T23:49:48.155Z,13.30
2018-04-15T23:52:21.928Z,13.26
2018-04-15T23:54:55.464Z,13.23
2018-04-15T23:57:29.028Z,13.23
